sensor_id;sensor_type;location;lat;lon;timestamp;temperature;humidity
34726;DHT22;20951;50.818;4.344;2024-03-25T00:01:14;6.70;99.90
34726;DHT22;20951;50.818;4.344;2024-03-25T00:03:40;6.70;99.90
34726;DHT22;20951;50.818;4.344;2024-03-25T00:06:06;6.70;99.90
34726;DHT22;20951;50.818;4.344;2024-03-25T00:08:32;6.70;99.90
34726;DHT22;20951;50.818;4.344;2024-03-25T00:10:58;6.60;99.90
34726;DHT22;20951;50.818;4.344;2024-03-25T00:13:23;6.70;99.90
34726;DHT22;20951;50.818;4.344;2024-03-25T00:15:49;6.70;99.90
34726;DHT22;20951;50.818;4.344;2024-03-25T00:18:16;6.80;99.90
34726;DHT22;20951;50.818;4.344;2024-03-25T00:20:42;6.70;99.90
34726;DHT22;20951;50.818;4.344;2024-03-25T00:23:07;6.70;99.90
34726;DHT22;20951;50.818;4.344;2024-03-25T00:25:33;6.70;99.90
34726;DHT22;20951;50.818;4.344;2024-03-25T00:27:59;6.70;99.90
34726;DHT22;20951;50.818;4.344;2024-03-25T00:30:25;6.70;99.90
34726;DHT22;20951;50.818;4.344;2024-03-25T00:32:51;6.80;99.90
34726;DHT22;20951;50.818;4.344;2024-03-25T00:35:16;6.70;99.90
34726;DHT22;20951;50.818;4.344;2024-03-25T00:37:43;6.60;99.90
34726;DHT22;20951;50.818;4.344;2024-03-25T00:40:10;6.60;99.90
34726;DHT22;20951;50.818;4.344;2024-03-25T00:42:37;6.70;99.90
34726;DHT22;20951;50.818;4.344;2024-03-25T00:45:03;6.70;99.90
34726;DHT22;20951;50.818;4.344;2024-03-25T00:47:31;6.60;99.90
34726;DHT22;20951;50.818;4.344;2024-03-25T00:49:57;6.70;99.90
34726;DHT22;20951;50.818;4.344;2024-03-25T00:52:23;6.70;99.90
34726;DHT22;20951;50.818;4.344;2024-03-25T00:54:49;6.70;99.90
34726;DHT22;20951;50.818;4.344;2024-03-25T00:57:14;6.80;99.90
34726;DHT22;20951;50.818;4.344;2024-03-25T00:59:41;6.90;99.90
34726;DHT22;20951;50.818;4.344;2024-03-25T01:02:07;6.80;99.90
34726;DHT22;20951;50.818;4.344;2024-03-25T01:04:34;6.70;99.90
34726;DHT22;20951;50.818;4.344;2024-03-25T01:06:59;6.70;99.90
34726;DHT22;20951;50.818;4.344;2024-03-25T01:09:25;6.60;99.90
34726;DHT22;20951;50.818;4.344;2024-03-25T01:11:51;6.60;99.90
34726;DHT22;20951;50.818;4.344;2024-03-25T01:14:17;6.70;99.90
34726;DHT22;20951;50.818;4.344;2024-03-25T01:16:43;6.60;99.90
34726;DHT22;20951;50.818;4.344;2024-03-25T01:19:09;6.60;99.90
34726;DHT22;20951;50.818;4.344;2024-03-25T01:21:35;6.80;99.90
34726;DHT22;20951;50.818;4.344;2024-03-25T01:24:01;6.80;99.90
34726;DHT22;20951;50.818;4.344;2024-03-25T01:26:27;6.60;99.90
34726;DHT22;20951;50.818;4.344;2024-03-25T01:28:54;6.70;99.90
34726;DHT22;20951;50.818;4.344;2024-03-25T01:31:20;6.70;99.90
34726;DHT22;20951;50.818;4.344;2024-03-25T01:33:45;6.70;99.90
34726;DHT22;20951;50.818;4.344;2024-03-25T01:36:11;6.70;99.90
34726;DHT22;20951;50.818;4.344;2024-03-25T01:38:42;6.60;99.90
34726;DHT22;20951;50.818;4.344;2024-03-25T01:41:12;6.60;99.90
34726;DHT22;20951;50.818;4.344;2024-03-25T01:43:40;6.60;99.90
34726;DHT22;20951;50.818;4.344;2024-03-25T01:46:06;6.70;99.90
34726;DHT22;20951;50.818;4.344;2024-03-25T01:48:33;6.70;99.90
34726;DHT22;20951;50.818;4.344;2024-03-25T01:50:59;6.70;99.90
34726;DHT22;20951;50.818;4.344;2024-03-25T01:53:26;6.60;99.90
34726;DHT22;20951;50.818;4.344;2024-03-25T01:55:54;6.50;99.90
34726;DHT22;20951;50.818;4.344;2024-03-25T01:58:22;6.40;99.90
34726;DHT22;20951;50.818;4.344;2024-03-25T02:00:49;6.50;99.90
34726;DHT22;20951;50.818;4.344;2024-03-25T02:03:16;6.40;99.90
34726;DHT22;20951;50.818;4.344;2024-03-25T02:05:42;6.40;99.90
34726;DHT22;20951;50.818;4.344;2024-03-25T02:08:09;6.30;99.90
34726;DHT22;20951;50.818;4.344;2024-03-25T02:10:36;6.50;99.90
34726;DHT22;20951;50.818;4.344;2024-03-25T02:13:03;6.40;99.90
34726;DHT22;20951;50.818;4.344;2024-03-25T02:15:29;6.50;99.90
34726;DHT22;20951;50.818;4.344;2024-03-25T02:17:55;6.50;99.90
34726;DHT22;20951;50.818;4.344;2024-03-25T02:20:21;6.60;99.90
34726;DHT22;20951;50.818;4.344;2024-03-25T02:22:47;6.60;99.90
34726;DHT22;20951;50.818;4.344;2024-03-25T02:25:14;6.30;99.90
34726;DHT22;20951;50.818;4.344;2024-03-25T02:27:41;6.30;99.90
34726;DHT22;20951;50.818;4.344;2024-03-25T02:30:09;6.30;99.90
34726;DHT22;20951;50.818;4.344;2024-03-25T02:32:36;6.40;99.90
34726;DHT22;20951;50.818;4.344;2024-03-25T02:35:15;6.30;99.90
34726;DHT22;20951;50.818;4.344;2024-03-25T02:37:42;6.30;99.90
34726;DHT22;20951;50.818;4.344;2024-03-25T02:40:09;6.30;99.90
34726;DHT22;20951;50.818;4.344;2024-03-25T02:42:36;6.30;99.90
34726;DHT22;20951;50.818;4.344;2024-03-25T02:45:02;6.30;99.90
34726;DHT22;20951;50.818;4.344;2024-03-25T02:47:29;6.40;99.90
34726;DHT22;20951;50.818;4.344;2024-03-25T02:49:55;6.30;99.90
34726;DHT22;20951;50.818;4.344;2024-03-25T02:52:21;6.40;99.90
34726;DHT22;20951;50.818;4.344;2024-03-25T02:54:47;6.40;99.90
34726;DHT22;20951;50.818;4.344;2024-03-25T02:57:12;6.50;99.90
34726;DHT22;20951;50.818;4.344;2024-03-25T02:59:38;6.50;99.90
34726;DHT22;20951;50.818;4.344;2024-03-25T03:02:04;6.50;99.90
34726;DHT22;20951;50.818;4.344;2024-03-25T03:04:30;6.60;99.90
34726;DHT22;20951;50.818;4.344;2024-03-25T03:06:56;6.60;99.90
34726;DHT22;20951;50.818;4.344;2024-03-25T03:09:23;6.50;99.90
34726;DHT22;20951;50.818;4.344;2024-03-25T03:11:49;6.70;99.90
34726;DHT22;20951;50.818;4.344;2024-03-25T03:14:14;6.60;99.90
34726;DHT22;20951;50.818;4.344;2024-03-25T03:16:40;6.80;99.90
34726;DHT22;20951;50.818;4.344;2024-03-25T03:19:06;6.70;99.90
34726;DHT22;20951;50.818;4.344;2024-03-25T03:21:32;6.80;99.90
34726;DHT22;20951;50.818;4.344;2024-03-25T03:23:58;6.90;99.90
34726;DHT22;20951;50.818;4.344;2024-03-25T03:26:24;7.00;99.90
34726;DHT22;20951;50.818;4.344;2024-03-25T03:28:56;7.00;99.90
34726;DHT22;20951;50.818;4.344;2024-03-25T03:31:22;7.00;99.90
34726;DHT22;20951;50.818;4.344;2024-03-25T03:33:48;7.10;99.90
34726;DHT22;20951;50.818;4.344;2024-03-25T03:36:18;7.10;99.90
34726;DHT22;20951;50.818;4.344;2024-03-25T03:38:45;6.90;99.90
34726;DHT22;20951;50.818;4.344;2024-03-25T03:41:11;7.00;99.90
34726;DHT22;20951;50.818;4.344;2024-03-25T03:43:37;7.10;99.90
34726;DHT22;20951;50.818;4.344;2024-03-25T03:46:03;7.00;99.90
34726;DHT22;20951;50.818;4.344;2024-03-25T03:48:29;7.00;99.90
34726;DHT22;20951;50.818;4.344;2024-03-25T03:50:55;7.00;99.90
34726;DHT22;20951;50.818;4.344;2024-03-25T03:53:21;6.90;99.90
34726;DHT22;20951;50.818;4.344;2024-03-25T03:55:56;6.90;99.90
34726;DHT22;20951;50.818;4.344;2024-03-25T03:58:23;6.80;99.90
34726;DHT22;20951;50.818;4.344;2024-03-25T04:00:49;6.80;99.90
34726;DHT22;20951;50.818;4.344;2024-03-25T04:03:15;6.80;99.90
34726;DHT22;20951;50.818;4.344;2024-03-25T04:05:41;6.90;99.90
34726;DHT22;20951;50.818;4.344;2024-03-25T04:08:07;6.90;99.90
34726;DHT22;20951;50.818;4.344;2024-03-25T04:10:34;6.90;99.90
34726;DHT22;20951;50.818;4.344;2024-03-25T04:13:01;6.90;99.90
34726;DHT22;20951;50.818;4.344;2024-03-25T04:15:27;6.90;99.90
34726;DHT22;20951;50.818;4.344;2024-03-25T04:17:53;6.80;99.90
34726;DHT22;20951;50.818;4.344;2024-03-25T04:20:19;6.80;99.90
34726;DHT22;20951;50.818;4.344;2024-03-25T04:22:46;6.80;99.90
34726;DHT22;20951;50.818;4.344;2024-03-25T04:25:12;6.80;99.90
34726;DHT22;20951;50.818;4.344;2024-03-25T04:27:42;6.70;99.90
34726;DHT22;20951;50.818;4.344;2024-03-25T04:30:09;6.50;99.90
34726;DHT22;20951;50.818;4.344;2024-03-25T04:32:37;6.70;99.90
34726;DHT22;20951;50.818;4.344;2024-03-25T04:35:03;6.70;99.90
34726;DHT22;20951;50.818;4.344;2024-03-25T04:37:29;6.70;99.90
34726;DHT22;20951;50.818;4.344;2024-03-25T04:39:56;6.60;99.90
34726;DHT22;20951;50.818;4.344;2024-03-25T04:42:22;6.60;99.90
34726;DHT22;20951;50.818;4.344;2024-03-25T04:44:49;6.70;99.90
34726;DHT22;20951;50.818;4.344;2024-03-25T04:47:15;6.70;99.90
34726;DHT22;20951;50.818;4.344;2024-03-25T04:49:41;6.70;99.90
34726;DHT22;20951;50.818;4.344;2024-03-25T04:52:07;6.70;99.90
34726;DHT22;20951;50.818;4.344;2024-03-25T04:54:33;6.60;99.90
34726;DHT22;20951;50.818;4.344;2024-03-25T04:56:58;6.60;99.90
34726;DHT22;20951;50.818;4.344;2024-03-25T04:59:24;6.40;99.90
34726;DHT22;20951;50.818;4.344;2024-03-25T05:01:50;6.40;99.90
34726;DHT22;20951;50.818;4.344;2024-03-25T05:04:20;6.30;99.90
34726;DHT22;20951;50.818;4.344;2024-03-25T05:06:46;6.30;99.90
34726;DHT22;20951;50.818;4.344;2024-03-25T05:09:12;6.30;99.90
34726;DHT22;20951;50.818;4.344;2024-03-25T05:11:37;6.40;99.90
34726;DHT22;20951;50.818;4.344;2024-03-25T05:14:03;6.40;99.90
34726;DHT22;20951;50.818;4.344;2024-03-25T05:16:29;6.30;99.90
34726;DHT22;20951;50.818;4.344;2024-03-25T05:18:56;6.30;99.90
34726;DHT22;20951;50.818;4.344;2024-03-25T05:21:21;6.30;99.90
34726;DHT22;20951;50.818;4.344;2024-03-25T05:23:47;6.30;99.90
34726;DHT22;20951;50.818;4.344;2024-03-25T05:26:13;6.20;99.90
34726;DHT22;20951;50.818;4.344;2024-03-25T05:28:39;6.40;99.90
34726;DHT22;20951;50.818;4.344;2024-03-25T05:31:08;6.50;99.90
34726;DHT22;20951;50.818;4.344;2024-03-25T05:33:34;6.50;99.90
34726;DHT22;20951;50.818;4.344;2024-03-25T05:36:01;6.50;99.90
34726;DHT22;20951;50.818;4.344;2024-03-25T05:38:27;6.50;99.90
34726;DHT22;20951;50.818;4.344;2024-03-25T05:40:53;6.60;99.90
34726;DHT22;20951;50.818;4.344;2024-03-25T05:43:19;6.70;99.90
34726;DHT22;20951;50.818;4.344;2024-03-25T05:45:55;6.90;99.90
34726;DHT22;20951;50.818;4.344;2024-03-25T05:48:21;6.90;99.90
34726;DHT22;20951;50.818;4.344;2024-03-25T05:51:03;6.90;99.90
34726;DHT22;20951;50.818;4.344;2024-03-25T05:53:31;7.00;99.90
34726;DHT22;20951;50.818;4.344;2024-03-25T05:55:56;6.90;99.90
34726;DHT22;20951;50.818;4.344;2024-03-25T05:58:24;6.70;99.90
34726;DHT22;20951;50.818;4.344;2024-03-25T06:00:51;6.70;99.90
34726;DHT22;20951;50.818;4.344;2024-03-25T06:03:18;6.80;99.90
34726;DHT22;20951;50.818;4.344;2024-03-25T06:05:44;6.80;99.90
34726;DHT22;20951;50.818;4.344;2024-03-25T06:08:10;6.80;99.90
34726;DHT22;20951;50.818;4.344;2024-03-25T06:10:45;6.80;99.90
34726;DHT22;20951;50.818;4.344;2024-03-25T06:13:11;6.70;99.90
34726;DHT22;20951;50.818;4.344;2024-03-25T06:15:37;6.80;99.90
34726;DHT22;20951;50.818;4.344;2024-03-25T06:18:03;6.70;99.90
34726;DHT22;20951;50.818;4.344;2024-03-25T06:20:29;6.80;99.90
34726;DHT22;20951;50.818;4.344;2024-03-25T06:22:54;6.80;99.90
34726;DHT22;20951;50.818;4.344;2024-03-25T06:25:20;7.00;99.90
34726;DHT22;20951;50.818;4.344;2024-03-25T06:27:46;6.90;99.90
34726;DHT22;20951;50.818;4.344;2024-03-25T06:30:12;7.00;99.90
34726;DHT22;20951;50.818;4.344;2024-03-25T06:32:57;7.10;99.90
34726;DHT22;20951;50.818;4.344;2024-03-25T06:35:44;7.20;99.90
34726;DHT22;20951;50.818;4.344;2024-03-25T06:38:10;7.30;99.90
34726;DHT22;20951;50.818;4.344;2024-03-25T06:40:37;7.30;99.90
34726;DHT22;20951;50.818;4.344;2024-03-25T06:43:03;7.30;99.90
34726;DHT22;20951;50.818;4.344;2024-03-25T06:45:29;7.30;99.90
34726;DHT22;20951;50.818;4.344;2024-03-25T06:47:55;7.30;99.90
34726;DHT22;20951;50.818;4.344;2024-03-25T06:50:21;7.30;99.90
34726;DHT22;20951;50.818;4.344;2024-03-25T06:52:48;7.50;99.90
34726;DHT22;20951;50.818;4.344;2024-03-25T06:55:14;7.60;99.90
34726;DHT22;20951;50.818;4.344;2024-03-25T06:57:40;7.60;99.90
34726;DHT22;20951;50.818;4.344;2024-03-25T07:00:06;7.70;99.90
34726;DHT22;20951;50.818;4.344;2024-03-25T07:02:38;7.70;99.90
34726;DHT22;20951;50.818;4.344;2024-03-25T07:05:05;7.60;99.90
34726;DHT22;20951;50.818;4.344;2024-03-25T07:07:31;7.70;99.90
34726;DHT22;20951;50.818;4.344;2024-03-25T07:09:57;7.70;99.90
34726;DHT22;20951;50.818;4.344;2024-03-25T07:12:23;7.80;99.90
34726;DHT22;20951;50.818;4.344;2024-03-25T07:14:48;7.80;99.90
34726;DHT22;20951;50.818;4.344;2024-03-25T07:17:14;7.90;99.90
34726;DHT22;20951;50.818;4.344;2024-03-25T07:19:40;8.00;99.90
34726;DHT22;20951;50.818;4.344;2024-03-25T07:22:06;8.00;99.90
34726;DHT22;20951;50.818;4.344;2024-03-25T07:24:32;7.80;99.90
34726;DHT22;20951;50.818;4.344;2024-03-25T07:26:58;8.10;99.90
34726;DHT22;20951;50.818;4.344;2024-03-25T07:29:24;8.20;99.90
34726;DHT22;20951;50.818;4.344;2024-03-25T07:31:50;8.30;99.90
34726;DHT22;20951;50.818;4.344;2024-03-25T07:34:15;8.30;99.90
34726;DHT22;20951;50.818;4.344;2024-03-25T07:36:41;8.50;99.90
34726;DHT22;20951;50.818;4.344;2024-03-25T07:39:07;8.50;99.90
34726;DHT22;20951;50.818;4.344;2024-03-25T07:41:39;8.40;99.90
34726;DHT22;20951;50.818;4.344;2024-03-25T07:44:05;8.40;99.90
34726;DHT22;20951;50.818;4.344;2024-03-25T07:46:31;8.30;99.90
34726;DHT22;20951;50.818;4.344;2024-03-25T07:48:57;8.60;99.90
34726;DHT22;20951;50.818;4.344;2024-03-25T07:51:23;8.60;99.90
34726;DHT22;20951;50.818;4.344;2024-03-25T07:53:49;8.90;99.90
34726;DHT22;20951;50.818;4.344;2024-03-25T07:56:18;9.40;99.90
34726;DHT22;20951;50.818;4.344;2024-03-25T07:58:44;9.60;99.90
34726;DHT22;20951;50.818;4.344;2024-03-25T08:01:10;10.20;99.90
34726;DHT22;20951;50.818;4.344;2024-03-25T08:03:35;10.80;99.90
34726;DHT22;20951;50.818;4.344;2024-03-25T08:06:01;11.10;99.90
34726;DHT22;20951;50.818;4.344;2024-03-25T08:08:28;11.50;99.90
34726;DHT22;20951;50.818;4.344;2024-03-25T08:10:57;11.40;99.90
34726;DHT22;20951;50.818;4.344;2024-03-25T08:13:22;12.10;99.90
34726;DHT22;20951;50.818;4.344;2024-03-25T08:15:48;12.60;99.90
34726;DHT22;20951;50.818;4.344;2024-03-25T08:18:14;12.80;99.90
34726;DHT22;20951;50.818;4.344;2024-03-25T08:20:40;12.80;99.90
34726;DHT22;20951;50.818;4.344;2024-03-25T08:23:06;12.80;99.90
34726;DHT22;20951;50.818;4.344;2024-03-25T08:25:32;13.10;99.90
34726;DHT22;20951;50.818;4.344;2024-03-25T08:27:58;12.90;99.90
34726;DHT22;20951;50.818;4.344;2024-03-25T08:30:25;12.90;99.90
34726;DHT22;20951;50.818;4.344;2024-03-25T08:32:52;13.70;99.90
34726;DHT22;20951;50.818;4.344;2024-03-25T08:35:18;15.10;99.90
34726;DHT22;20951;50.818;4.344;2024-03-25T08:37:44;15.70;99.90
34726;DHT22;20951;50.818;4.344;2024-03-25T08:40:10;16.70;99.90
34726;DHT22;20951;50.818;4.344;2024-03-25T08:42:36;17.20;99.90
34726;DHT22;20951;50.818;4.344;2024-03-25T08:45:02;16.90;99.90
34726;DHT22;20951;50.818;4.344;2024-03-25T08:47:27;16.70;99.90
34726;DHT22;20951;50.818;4.344;2024-03-25T08:49:53;16.00;99.90
34726;DHT22;20951;50.818;4.344;2024-03-25T08:52:19;15.90;99.90
34726;DHT22;20951;50.818;4.344;2024-03-25T08:54:45;15.70;99.90
34726;DHT22;20951;50.818;4.344;2024-03-25T08:57:11;16.20;99.90
34726;DHT22;20951;50.818;4.344;2024-03-25T08:59:36;17.60;99.90
34726;DHT22;20951;50.818;4.344;2024-03-25T09:02:02;17.70;99.90
34726;DHT22;20951;50.818;4.344;2024-03-25T09:04:28;18.20;99.90
34726;DHT22;20951;50.818;4.344;2024-03-25T09:06:54;18.90;99.90
34726;DHT22;20951;50.818;4.344;2024-03-25T09:09:20;18.90;99.90
34726;DHT22;20951;50.818;4.344;2024-03-25T09:12:04;18.80;99.90
34726;DHT22;20951;50.818;4.344;2024-03-25T09:14:30;18.70;99.90
34726;DHT22;20951;50.818;4.344;2024-03-25T09:16:56;19.20;99.90
34726;DHT22;20951;50.818;4.344;2024-03-25T09:19:21;19.80;99.90
34726;DHT22;20951;50.818;4.344;2024-03-25T09:21:47;19.90;99.90
34726;DHT22;20951;50.818;4.344;2024-03-25T09:24:13;19.60;99.90
34726;DHT22;20951;50.818;4.344;2024-03-25T09:26:39;20.30;99.90
34726;DHT22;20951;50.818;4.344;2024-03-25T09:29:05;20.80;99.90
34726;DHT22;20951;50.818;4.344;2024-03-25T09:31:30;21.00;99.90
34726;DHT22;20951;50.818;4.344;2024-03-25T09:33:56;21.00;99.90
34726;DHT22;20951;50.818;4.344;2024-03-25T09:36:22;19.90;99.90
34726;DHT22;20951;50.818;4.344;2024-03-25T09:38:48;19.60;99.90
34726;DHT22;20951;50.818;4.344;2024-03-25T09:41:16;19.20;99.90
34726;DHT22;20951;50.818;4.344;2024-03-25T09:43:48;18.30;99.90
34726;DHT22;20951;50.818;4.344;2024-03-25T09:46:15;17.40;99.90
34726;DHT22;20951;50.818;4.344;2024-03-25T09:48:42;17.20;99.90
34726;DHT22;20951;50.818;4.344;2024-03-25T09:51:09;17.70;99.90
34726;DHT22;20951;50.818;4.344;2024-03-25T09:53:35;19.50;99.90
34726;DHT22;20951;50.818;4.344;2024-03-25T09:56:02;20.20;99.90
34726;DHT22;20951;50.818;4.344;2024-03-25T09:58:28;19.50;99.90
34726;DHT22;20951;50.818;4.344;2024-03-25T10:00:55;20.00;99.90
34726;DHT22;20951;50.818;4.344;2024-03-25T10:03:23;19.70;99.90
34726;DHT22;20951;50.818;4.344;2024-03-25T10:05:49;19.20;99.90
34726;DHT22;20951;50.818;4.344;2024-03-25T10:08:22;19.10;99.90
34726;DHT22;20951;50.818;4.344;2024-03-25T10:10:49;20.30;99.90
34726;DHT22;20951;50.818;4.344;2024-03-25T10:13:16;21.50;99.30
34726;DHT22;20951;50.818;4.344;2024-03-25T10:15:42;22.00;97.80
34726;DHT22;20951;50.818;4.344;2024-03-25T10:18:11;21.90;97.10
34726;DHT22;20951;50.818;4.344;2024-03-25T10:20:37;21.80;97.00
34726;DHT22;20951;50.818;4.344;2024-03-25T10:23:03;21.20;97.60
34726;DHT22;20951;50.818;4.344;2024-03-25T10:25:31;21.30;97.40
34726;DHT22;20951;50.818;4.344;2024-03-25T10:27:57;20.00;98.70
34726;DHT22;20951;50.818;4.344;2024-03-25T10:30:24;20.60;98.50
34726;DHT22;20951;50.818;4.344;2024-03-25T10:33:00;21.40;96.50
34726;DHT22;20951;50.818;4.344;2024-03-25T10:35:27;20.90;96.30
34726;DHT22;20951;50.818;4.344;2024-03-25T10:38:06;19.70;97.70
34726;DHT22;20951;50.818;4.344;2024-03-25T10:40:36;19.10;97.60
34726;DHT22;20951;50.818;4.344;2024-03-25T10:43:04;18.50;96.80
34726;DHT22;20951;50.818;4.344;2024-03-25T10:45:55;18.20;98.80
34726;DHT22;20951;50.818;4.344;2024-03-25T10:48:37;18.70;98.20
34726;DHT22;20951;50.818;4.344;2024-03-25T10:51:05;19.60;96.70
34726;DHT22;20951;50.818;4.344;2024-03-25T10:53:36;19.60;94.10
34726;DHT22;20951;50.818;4.344;2024-03-25T10:56:03;19.60;95.30
34726;DHT22;20951;50.818;4.344;2024-03-25T10:58:31;20.20;95.30
34726;DHT22;20951;50.818;4.344;2024-03-25T11:00:59;20.00;94.60
34726;DHT22;20951;50.818;4.344;2024-03-25T11:03:26;20.10;94.80
34726;DHT22;20951;50.818;4.344;2024-03-25T11:05:52;20.30;94.90
34726;DHT22;20951;50.818;4.344;2024-03-25T11:08:18;20.50;93.40
34726;DHT22;20951;50.818;4.344;2024-03-25T11:10:45;19.80;90.70
34726;DHT22;20951;50.818;4.344;2024-03-25T11:13:18;19.70;92.70
34726;DHT22;20951;50.818;4.344;2024-03-25T11:15:45;20.00;91.60
34726;DHT22;20951;50.818;4.344;2024-03-25T11:18:16;20.70;91.90
34726;DHT22;20951;50.818;4.344;2024-03-25T11:20:42;21.40;89.30
34726;DHT22;20951;50.818;4.344;2024-03-25T11:23:15;21.00;88.40
34726;DHT22;20951;50.818;4.344;2024-03-25T11:25:43;20.60;85.50
34726;DHT22;20951;50.818;4.344;2024-03-25T11:28:09;20.80;85.30
34726;DHT22;20951;50.818;4.344;2024-03-25T11:30:36;19.60;88.20
34726;DHT22;20951;50.818;4.344;2024-03-25T11:33:03;19.50;88.70
34726;DHT22;20951;50.818;4.344;2024-03-25T11:35:30;19.70;90.00
34726;DHT22;20951;50.818;4.344;2024-03-25T11:37:56;21.10;89.20
34726;DHT22;20951;50.818;4.344;2024-03-25T11:40:22;21.70;85.50
34726;DHT22;20951;50.818;4.344;2024-03-25T11:42:48;20.50;84.50
34726;DHT22;20951;50.818;4.344;2024-03-25T11:45:21;19.30;84.60
34726;DHT22;20951;50.818;4.344;2024-03-25T11:47:48;19.10;85.90
34726;DHT22;20951;50.818;4.344;2024-03-25T11:50:18;18.60;87.00
34726;DHT22;20951;50.818;4.344;2024-03-25T11:52:45;18.70;88.50
34726;DHT22;20951;50.818;4.344;2024-03-25T11:55:19;18.40;88.60
34726;DHT22;20951;50.818;4.344;2024-03-25T11:57:45;18.00;89.80
34726;DHT22;20951;50.818;4.344;2024-03-25T12:00:11;17.10;91.10
34726;DHT22;20951;50.818;4.344;2024-03-25T12:02:44;16.40;92.20
34726;DHT22;20951;50.818;4.344;2024-03-25T12:05:11;17.30;92.20
34726;DHT22;20951;50.818;4.344;2024-03-25T12:07:37;18.40;91.00
34726;DHT22;20951;50.818;4.344;2024-03-25T12:10:03;18.20;90.60
34726;DHT22;20951;50.818;4.344;2024-03-25T12:12:48;17.20;91.90
34726;DHT22;20951;50.818;4.344;2024-03-25T12:15:16;17.10;92.60
34726;DHT22;20951;50.818;4.344;2024-03-25T12:17:42;17.40;92.20
34726;DHT22;20951;50.818;4.344;2024-03-25T12:20:09;17.30;92.00
34726;DHT22;20951;50.818;4.344;2024-03-25T12:22:36;17.30;91.20
34726;DHT22;20951;50.818;4.344;2024-03-25T12:25:03;17.00;90.70
34726;DHT22;20951;50.818;4.344;2024-03-25T12:27:32;17.50;90.10
34726;DHT22;20951;50.818;4.344;2024-03-25T12:30:04;17.90;89.00
34726;DHT22;20951;50.818;4.344;2024-03-25T12:32:40;17.40;89.80
34726;DHT22;20951;50.818;4.344;2024-03-25T12:35:14;17.30;89.80
34726;DHT22;20951;50.818;4.344;2024-03-25T12:37:45;17.10;90.80
34726;DHT22;20951;50.818;4.344;2024-03-25T12:40:12;18.40;90.90
34726;DHT22;20951;50.818;4.344;2024-03-25T12:42:40;19.30;88.30
34726;DHT22;20951;50.818;4.344;2024-03-25T12:45:07;19.30;84.50
34726;DHT22;20951;50.818;4.344;2024-03-25T12:47:33;19.20;83.00
34726;DHT22;20951;50.818;4.344;2024-03-25T12:49:59;18.70;84.80
34726;DHT22;20951;50.818;4.344;2024-03-25T12:52:25;17.30;88.00
34726;DHT22;20951;50.818;4.344;2024-03-25T12:54:51;17.50;88.40
34726;DHT22;20951;50.818;4.344;2024-03-25T12:57:17;17.00;89.10
34726;DHT22;20951;50.818;4.344;2024-03-25T12:59:44;16.80;89.50
34726;DHT22;20951;50.818;4.344;2024-03-25T13:02:12;16.90;90.10
34726;DHT22;20951;50.818;4.344;2024-03-25T13:04:41;17.70;88.70
34726;DHT22;20951;50.818;4.344;2024-03-25T13:07:09;18.90;85.50
34726;DHT22;20951;50.818;4.344;2024-03-25T13:09:36;20.30;83.10
34726;DHT22;20951;50.818;4.344;2024-03-25T13:12:02;21.60;81.50
34726;DHT22;20951;50.818;4.344;2024-03-25T13:14:28;20.60;78.40
34726;DHT22;20951;50.818;4.344;2024-03-25T13:16:55;19.30;80.80
34726;DHT22;20951;50.818;4.344;2024-03-25T13:19:20;18.20;82.80
34726;DHT22;20951;50.818;4.344;2024-03-25T13:21:46;17.70;85.10
34726;DHT22;20951;50.818;4.344;2024-03-25T13:24:15;17.40;84.30
34726;DHT22;20951;50.818;4.344;2024-03-25T13:26:41;16.90;86.30
34726;DHT22;20951;50.818;4.344;2024-03-25T13:29:07;16.40;87.30
34726;DHT22;20951;50.818;4.344;2024-03-25T13:31:33;16.10;88.20
34726;DHT22;20951;50.818;4.344;2024-03-25T13:33:59;16.00;88.30
34726;DHT22;20951;50.818;4.344;2024-03-25T13:36:25;16.10;89.10
34726;DHT22;20951;50.818;4.344;2024-03-25T13:38:51;16.50;88.50
34726;DHT22;20951;50.818;4.344;2024-03-25T13:41:20;16.50;87.90
34726;DHT22;20951;50.818;4.344;2024-03-25T13:43:48;16.80;87.80
34726;DHT22;20951;50.818;4.344;2024-03-25T13:46:14;16.90;87.30
34726;DHT22;20951;50.818;4.344;2024-03-25T13:48:40;17.50;86.70
34726;DHT22;20951;50.818;4.344;2024-03-25T13:51:06;17.60;85.90
34726;DHT22;20951;50.818;4.344;2024-03-25T13:53:31;17.00;86.80
34726;DHT22;20951;50.818;4.344;2024-03-25T13:55:58;17.60;86.10
34726;DHT22;20951;50.818;4.344;2024-03-25T13:58:25;18.30;84.10
34726;DHT22;20951;50.818;4.344;2024-03-25T14:00:51;19.00;83.90
34726;DHT22;20951;50.818;4.344;2024-03-25T14:03:17;18.90;83.30
34726;DHT22;20951;50.818;4.344;2024-03-25T14:05:44;18.30;84.00
34726;DHT22;20951;50.818;4.344;2024-03-25T14:08:10;18.70;85.10
34726;DHT22;20951;50.818;4.344;2024-03-25T14:10:36;20.20;83.60
34726;DHT22;20951;50.818;4.344;2024-03-25T14:13:02;20.40;80.80
34726;DHT22;20951;50.818;4.344;2024-03-25T14:15:29;20.30;81.20
34726;DHT22;20951;50.818;4.344;2024-03-25T14:17:55;19.70;81.50
34726;DHT22;20951;50.818;4.344;2024-03-25T14:20:21;19.60;82.20
34726;DHT22;20951;50.818;4.344;2024-03-25T14:22:47;19.30;82.40
34726;DHT22;20951;50.818;4.344;2024-03-25T14:25:13;18.60;84.00
34726;DHT22;20951;50.818;4.344;2024-03-25T14:27:40;18.40;83.90
34726;DHT22;20951;50.818;4.344;2024-03-25T14:30:07;18.10;83.80
34726;DHT22;20951;50.818;4.344;2024-03-25T14:32:36;17.30;86.00
34726;DHT22;20951;50.818;4.344;2024-03-25T14:35:05;17.10;87.50
34726;DHT22;20951;50.818;4.344;2024-03-25T14:37:32;17.10;86.60
34726;DHT22;20951;50.818;4.344;2024-03-25T14:39:58;16.80;86.60
34726;DHT22;20951;50.818;4.344;2024-03-25T14:42:25;17.00;86.80
34726;DHT22;20951;50.818;4.344;2024-03-25T14:44:51;17.20;85.20
34726;DHT22;20951;50.818;4.344;2024-03-25T14:47:16;17.50;85.30
34726;DHT22;20951;50.818;4.344;2024-03-25T14:49:42;17.90;84.30
34726;DHT22;20951;50.818;4.344;2024-03-25T14:52:08;17.80;84.50
34726;DHT22;20951;50.818;4.344;2024-03-25T14:54:35;18.00;84.80
34726;DHT22;20951;50.818;4.344;2024-03-25T14:57:01;18.50;84.00
34726;DHT22;20951;50.818;4.344;2024-03-25T14:59:27;18.80;83.50
34726;DHT22;20951;50.818;4.344;2024-03-25T15:01:54;18.50;82.90
34726;DHT22;20951;50.818;4.344;2024-03-25T15:04:19;18.30;83.90
34726;DHT22;20951;50.818;4.344;2024-03-25T15:06:45;18.20;83.60
34726;DHT22;20951;50.818;4.344;2024-03-25T15:09:11;17.70;84.20
34726;DHT22;20951;50.818;4.344;2024-03-25T15:11:38;17.60;84.90
34726;DHT22;20951;50.818;4.344;2024-03-25T15:14:03;16.90;85.50
34726;DHT22;20951;50.818;4.344;2024-03-25T15:16:30;16.50;87.30
34726;DHT22;20951;50.818;4.344;2024-03-25T15:18:56;16.60;87.90
34726;DHT22;20951;50.818;4.344;2024-03-25T15:21:22;16.10;87.90
34726;DHT22;20951;50.818;4.344;2024-03-25T15:23:48;15.60;88.80
34726;DHT22;20951;50.818;4.344;2024-03-25T15:26:14;15.40;88.70
34726;DHT22;20951;50.818;4.344;2024-03-25T15:28:40;15.40;88.60
34726;DHT22;20951;50.818;4.344;2024-03-25T15:31:06;15.50;88.30
34726;DHT22;20951;50.818;4.344;2024-03-25T15:33:32;15.30;88.00
34726;DHT22;20951;50.818;4.344;2024-03-25T15:36:00;15.10;89.30